sensor_id;sensor_type;location;lat;lon;timestamp;P1;durP1;ratioP1;P2;durP2;ratioP2
48205;SDS011;33995;48.202;16.260;2023-10-19T00:00:42;16.00;;;14.40;;
48205;SDS011;33995;48.202;16.260;2023-10-19T00:03:12;17.97;;;15.13;;
48205;SDS011;33995;48.202;16.260;2023-10-19T00:05:39;16.43;;;14.70;;
48205;SDS011;33995;48.202;16.260;2023-10-19T00:08:08;15.80;;;14.30;;
48205;SDS011;33995;48.202;16.260;2023-10-19T00:10:51;16.17;;;14.57;;
48205;SDS011;33995;48.202;16.260;2023-10-19T00:13:29;15.87;;;14.37;;
48205;SDS011;33995;48.202;16.260;2023-10-19T00:15:56;17.30;;;15.53;;
48205;SDS011;33995;48.202;16.260;2023-10-19T00:18:30;16.90;;;15.10;;
48205;SDS011;33995;48.202;16.260;2023-10-19T00:21:00;17.00;;;15.20;;
48205;SDS011;33995;48.202;16.260;2023-10-19T00:23:59;17.43;;;15.73;;
48205;SDS011;33995;48.202;16.260;2023-10-19T00:26:32;16.37;;;14.77;;
48205;SDS011;33995;48.202;16.260;2023-10-19T00:29:02;16.63;;;14.90;;
48205;SDS011;33995;48.202;16.260;2023-10-19T00:31:44;16.80;;;15.20;;
48205;SDS011;33995;48.202;16.260;2023-10-19T00:34:12;16.87;;;15.17;;
48205;SDS011;33995;48.202;16.260;2023-10-19T00:36:47;18.00;;;16.20;;
48205;SDS011;33995;48.202;16.260;2023-10-19T00:39:17;17.50;;;15.80;;
48205;SDS011;33995;48.202;16.260;2023-10-19T00:41:53;17.47;;;15.67;;
48205;SDS011;33995;48.202;16.260;2023-10-19T00:44:23;17.57;;;15.73;;
48205;SDS011;33995;48.202;16.260;2023-10-19T00:47:09;17.23;;;15.43;;
48205;SDS011;33995;48.202;16.260;2023-10-19T00:49:46;18.30;;;16.30;;
48205;SDS011;33995;48.202;16.260;2023-10-19T00:52:15;17.67;;;15.93;;
48205;SDS011;33995;48.202;16.260;2023-10-19T00:54:46;17.73;;;15.97;;
48205;SDS011;33995;48.202;16.260;2023-10-19T00:57:18;17.47;;;15.67;;
48205;SDS011;33995;48.202;16.260;2023-10-19T00:59:47;17.83;;;16.13;;
48205;SDS011;33995;48.202;16.260;2023-10-19T01:02:17;17.57;;;15.87;;
48205;SDS011;33995;48.202;16.260;2023-10-19T01:04:47;18.60;;;16.37;;
48205;SDS011;33995;48.202;16.260;2023-10-19T01:07:23;17.47;;;15.73;;
48205;SDS011;33995;48.202;16.260;2023-10-19T01:09:56;19.03;;;17.13;;
48205;SDS011;33995;48.202;16.260;2023-10-19T01:12:26;18.33;;;16.40;;
48205;SDS011;33995;48.202;16.260;2023-10-19T01:17:45;19.13;;;17.23;;
48205;SDS011;33995;48.202;16.260;2023-10-19T01:20:25;18.83;;;17.03;;
48205;SDS011;33995;48.202;16.260;2023-10-19T01:28:24;19.67;;;17.70;;
48205;SDS011;33995;48.202;16.260;2023-10-19T01:31:05;18.97;;;16.97;;
48205;SDS011;33995;48.202;16.260;2023-10-19T01:33:35;20.00;;;18.10;;
48205;SDS011;33995;48.202;16.260;2023-10-19T01:36:02;20.40;;;18.40;;
48205;SDS011;33995;48.202;16.260;2023-10-19T01:38:41;19.70;;;17.80;;
48205;SDS011;33995;48.202;16.260;2023-10-19T01:41:11;19.77;;;17.87;;
48205;SDS011;33995;48.202;16.260;2023-10-19T01:43:46;20.87;;;18.70;;
48205;SDS011;33995;48.202;16.260;2023-10-19T01:46:16;20.33;;;18.27;;
48205;SDS011;33995;48.202;16.260;2023-10-19T01:48:51;20.37;;;18.37;;
48205;SDS011;33995;48.202;16.260;2023-10-19T01:51:26;20.43;;;18.57;;
48205;SDS011;33995;48.202;16.260;2023-10-19T01:53:59;20.37;;;18.37;;
48205;SDS011;33995;48.202;16.260;2023-10-19T01:56:30;20.83;;;18.73;;
48205;SDS011;33995;48.202;16.260;2023-10-19T01:59:04;20.57;;;18.57;;
48205;SDS011;33995;48.202;16.260;2023-10-19T02:05:17;20.70;;;18.47;;
48205;SDS011;33995;48.202;16.260;2023-10-19T02:07:45;20.47;;;18.47;;
48205;SDS011;33995;48.202;16.260;2023-10-19T02:10:14;19.73;;;17.77;;
48205;SDS011;33995;48.202;16.260;2023-10-19T02:12:42;21.07;;;18.97;;
48205;SDS011;33995;48.202;16.260;2023-10-19T02:15:09;21.47;;;19.27;;
48205;SDS011;33995;48.202;16.260;2023-10-19T02:17:37;21.03;;;19.03;;
48205;SDS011;33995;48.202;16.260;2023-10-19T02:20:04;21.67;;;19.47;;
48205;SDS011;33995;48.202;16.260;2023-10-19T02:22:43;21.57;;;19.43;;
48205;SDS011;33995;48.202;16.260;2023-10-19T02:25:13;21.30;;;19.37;;
48205;SDS011;33995;48.202;16.260;2023-10-19T02:27:41;22.20;;;19.97;;
48205;SDS011;33995;48.202;16.260;2023-10-19T02:30:08;20.77;;;18.67;;
48205;SDS011;33995;48.202;16.260;2023-10-19T02:32:37;22.40;;;20.13;;
48205;SDS011;33995;48.202;16.260;2023-10-19T02:35:05;22.50;;;20.40;;
48205;SDS011;33995;48.202;16.260;2023-10-19T02:37:32;22.00;;;19.73;;
48205;SDS011;33995;48.202;16.260;2023-10-19T02:39:59;22.30;;;20.13;;
48205;SDS011;33995;48.202;16.260;2023-10-19T02:42:26;23.03;;;20.83;;
48205;SDS011;33995;48.202;16.260;2023-10-19T02:44:57;23.23;;;20.97;;
48205;SDS011;33995;48.202;16.260;2023-10-19T02:47:25;23.10;;;20.83;;
48205;SDS011;33995;48.202;16.260;2023-10-19T02:49:55;22.27;;;20.27;;
48205;SDS011;33995;48.202;16.260;2023-10-19T02:52:22;22.03;;;19.93;;
48205;SDS011;33995;48.202;16.260;2023-10-19T02:54:49;23.73;;;21.43;;
48205;SDS011;33995;48.202;16.260;2023-10-19T02:57:17;22.80;;;20.67;;
48205;SDS011;33995;48.202;16.260;2023-10-19T02:59:45;23.60;;;21.30;;
48205;SDS011;33995;48.202;16.260;2023-10-19T03:02:13;23.63;;;21.33;;
48205;SDS011;33995;48.202;16.260;2023-10-19T03:04:40;22.97;;;20.70;;
48205;SDS011;33995;48.202;16.260;2023-10-19T03:07:11;23.93;;;21.37;;
48205;SDS011;33995;48.202;16.260;2023-10-19T03:09:40;24.40;;;21.90;;
48205;SDS011;33995;48.202;16.260;2023-10-19T03:12:15;22.60;;;20.40;;
48205;SDS011;33995;48.202;16.260;2023-10-19T03:14:48;22.80;;;20.60;;
48205;SDS011;33995;48.202;16.260;2023-10-19T03:17:18;22.57;;;20.47;;
48205;SDS011;33995;48.202;16.260;2023-10-19T03:19:45;23.00;;;20.73;;
48205;SDS011;33995;48.202;16.260;2023-10-19T03:22:14;24.07;;;21.70;;
48205;SDS011;33995;48.202;16.260;2023-10-19T03:24:44;23.30;;;20.90;;
48205;SDS011;33995;48.202;16.260;2023-10-19T03:27:12;22.97;;;20.77;;
48205;SDS011;33995;48.202;16.260;2023-10-19T03:29:47;23.63;;;21.43;;
48205;SDS011;33995;48.202;16.260;2023-10-19T03:32:21;22.67;;;20.47;;
48205;SDS011;33995;48.202;16.260;2023-10-19T03:34:54;23.13;;;20.93;;
48205;SDS011;33995;48.202;16.260;2023-10-19T03:37:29;22.80;;;20.50;;
48205;SDS011;33995;48.202;16.260;2023-10-19T03:39:57;22.40;;;20.20;;
48205;SDS011;33995;48.202;16.260;2023-10-19T03:42:28;23.23;;;21.03;;
48205;SDS011;33995;48.202;16.260;2023-10-19T03:45:01;23.23;;;20.93;;
48205;SDS011;33995;48.202;16.260;2023-10-19T03:47:34;22.70;;;20.60;;
48205;SDS011;33995;48.202;16.260;2023-10-19T03:50:02;23.43;;;21.13;;
48205;SDS011;33995;48.202;16.260;2023-10-19T03:52:35;23.90;;;21.60;;
48205;SDS011;33995;48.202;16.260;2023-10-19T03:55:05;23.67;;;21.27;;
48205;SDS011;33995;48.202;16.260;2023-10-19T03:57:38;23.37;;;21.13;;
48205;SDS011;33995;48.202;16.260;2023-10-19T04:00:13;24.20;;;21.70;;
48205;SDS011;33995;48.202;16.260;2023-10-19T04:02:54;24.17;;;21.87;;
48205;SDS011;33995;48.202;16.260;2023-10-19T04:05:25;23.90;;;21.60;;
48205;SDS011;33995;48.202;16.260;2023-10-19T04:07:55;22.57;;;20.37;;
48205;SDS011;33995;48.202;16.260;2023-10-19T04:10:24;22.97;;;20.67;;
48205;SDS011;33995;48.202;16.260;2023-10-19T04:13:03;24.20;;;21.77;;
48205;SDS011;33995;48.202;16.260;2023-10-19T04:15:40;23.97;;;21.67;;
48205;SDS011;33995;48.202;16.260;2023-10-19T04:18:08;25.17;;;22.57;;
48205;SDS011;33995;48.202;16.260;2023-10-19T04:20:36;24.03;;;21.83;;
48205;SDS011;33995;48.202;16.260;2023-10-19T04:23:24;25.17;;;21.33;;
48205;SDS011;33995;48.202;16.260;2023-10-19T04:25:55;26.03;;;23.27;;
48205;SDS011;33995;48.202;16.260;2023-10-19T04:28:23;25.10;;;22.60;;
48205;SDS011;33995;48.202;16.260;2023-10-19T04:31:14;25.17;;;22.67;;
48205;SDS011;33995;48.202;16.260;2023-10-19T04:33:41;24.30;;;22.03;;
48205;SDS011;33995;48.202;16.260;2023-10-19T04:36:14;25.43;;;22.83;;
48205;SDS011;33995;48.202;16.260;2023-10-19T04:38:42;25.93;;;22.97;;
48205;SDS011;33995;48.202;16.260;2023-10-19T04:41:10;23.80;;;21.50;;
48205;SDS011;33995;48.202;16.260;2023-10-19T04:43:38;25.27;;;22.87;;
48205;SDS011;33995;48.202;16.260;2023-10-19T04:46:18;24.30;;;21.70;;
48205;SDS011;33995;48.202;16.260;2023-10-19T04:48:46;26.10;;;23.30;;
48205;SDS011;33995;48.202;16.260;2023-10-19T04:51:12;25.07;;;22.67;;
48205;SDS011;33995;48.202;16.260;2023-10-19T04:53:39;25.70;;;23.30;;
48205;SDS011;33995;48.202;16.260;2023-10-19T04:56:07;25.63;;;23.13;;
48205;SDS011;33995;48.202;16.260;2023-10-19T04:58:39;25.63;;;23.23;;
48205;SDS011;33995;48.202;16.260;2023-10-19T05:01:06;26.00;;;23.40;;
48205;SDS011;33995;48.202;16.260;2023-10-19T05:03:33;25.10;;;22.60;;
48205;SDS011;33995;48.202;16.260;2023-10-19T05:06:04;25.53;;;23.13;;
48205;SDS011;33995;48.202;16.260;2023-10-19T05:08:51;25.30;;;22.70;;
48205;SDS011;33995;48.202;16.260;2023-10-19T05:11:24;26.07;;;23.57;;
48205;SDS011;33995;48.202;16.260;2023-10-19T05:13:51;25.77;;;23.27;;
48205;SDS011;33995;48.202;16.260;2023-10-19T05:16:18;26.03;;;23.57;;
48205;SDS011;33995;48.202;16.260;2023-10-19T05:18:45;25.57;;;23.10;;
48205;SDS011;33995;48.202;16.260;2023-10-19T05:21:15;25.97;;;23.47;;
48205;SDS011;33995;48.202;16.260;2023-10-19T05:23:42;24.63;;;22.13;;
48205;SDS011;33995;48.202;16.260;2023-10-19T05:26:09;25.93;;;23.33;;
48205;SDS011;33995;48.202;16.260;2023-10-19T05:28:41;27.17;;;24.47;;
48205;SDS011;33995;48.202;16.260;2023-10-19T05:31:09;25.60;;;23.10;;
48205;SDS011;33995;48.202;16.260;2023-10-19T05:33:41;25.93;;;23.43;;
48205;SDS011;33995;48.202;16.260;2023-10-19T05:36:08;24.80;;;22.43;;
48205;SDS011;33995;48.202;16.260;2023-10-19T05:38:36;25.97;;;23.07;;
48205;SDS011;33995;48.202;16.260;2023-10-19T05:41:04;25.83;;;23.10;;
48205;SDS011;33995;48.202;16.260;2023-10-19T05:43:31;24.77;;;22.33;;
48205;SDS011;33995;48.202;16.260;2023-10-19T05:46:00;25.67;;;22.97;;
48205;SDS011;33995;48.202;16.260;2023-10-19T05:48:27;25.70;;;23.00;;
48205;SDS011;33995;48.202;16.260;2023-10-19T05:50:57;25.60;;;23.03;;
48205;SDS011;33995;48.202;16.260;2023-10-19T05:53:27;26.13;;;23.63;;
48205;SDS011;33995;48.202;16.260;2023-10-19T05:55:56;25.30;;;22.80;;
48205;SDS011;33995;48.202;16.260;2023-10-19T05:58:23;25.37;;;22.97;;
48205;SDS011;33995;48.202;16.260;2023-10-19T06:00:59;25.00;;;22.60;;
48205;SDS011;33995;48.202;16.260;2023-10-19T06:03:26;25.47;;;22.77;;
48205;SDS011;33995;48.202;16.260;2023-10-19T06:05:53;24.80;;;22.50;;
48205;SDS011;33995;48.202;16.260;2023-10-19T06:08:22;25.47;;;22.97;;
48205;SDS011;33995;48.202;16.260;2023-10-19T06:10:52;26.00;;;23.53;;
48205;SDS011;33995;48.202;16.260;2023-10-19T06:13:19;25.40;;;23.00;;
48205;SDS011;33995;48.202;16.260;2023-10-19T06:15:48;25.20;;;22.80;;
48205;SDS011;33995;48.202;16.260;2023-10-19T06:18:15;25.47;;;22.67;;
48205;SDS011;33995;48.202;16.260;2023-10-19T06:20:43;25.60;;;22.90;;
48205;SDS011;33995;48.202;16.260;2023-10-19T06:23:11;24.80;;;22.40;;
48205;SDS011;33995;48.202;16.260;2023-10-19T06:25:42;25.23;;;22.73;;
48205;SDS011;33995;48.202;16.260;2023-10-19T06:28:10;25.73;;;23.17;;
48205;SDS011;33995;48.202;16.260;2023-10-19T06:30:46;26.00;;;23.43;;
48205;SDS011;33995;48.202;16.260;2023-10-19T06:33:15;24.90;;;22.47;;
48205;SDS011;33995;48.202;16.260;2023-10-19T06:35:42;24.60;;;22.20;;
48205;SDS011;33995;48.202;16.260;2023-10-19T06:38:09;25.37;;;22.87;;
48205;SDS011;33995;48.202;16.260;2023-10-19T06:40:36;25.27;;;22.87;;
48205;SDS011;33995;48.202;16.260;2023-10-19T06:43:03;25.20;;;22.70;;
48205;SDS011;33995;48.202;16.260;2023-10-19T06:45:31;26.43;;;23.90;;
48205;SDS011;33995;48.202;16.260;2023-10-19T06:48:00;24.80;;;22.33;;
48205;SDS011;33995;48.202;16.260;2023-10-19T06:50:27;25.80;;;23.33;;
48205;SDS011;33995;48.202;16.260;2023-10-19T06:52:54;25.73;;;23.33;;
48205;SDS011;33995;48.202;16.260;2023-10-19T06:55:21;25.57;;;23.07;;
48205;SDS011;33995;48.202;16.260;2023-10-19T06:57:50;25.23;;;22.83;;
48205;SDS011;33995;48.202;16.260;2023-10-19T07:00:38;25.13;;;22.73;;
48205;SDS011;33995;48.202;16.260;2023-10-19T07:03:13;26.20;;;23.63;;
48205;SDS011;33995;48.202;16.260;2023-10-19T07:05:40;25.80;;;23.30;;
48205;SDS011;33995;48.202;16.260;2023-10-19T07:08:07;25.97;;;23.53;;
48205;SDS011;33995;48.202;16.260;2023-10-19T07:10:34;26.33;;;23.60;;
48205;SDS011;33995;48.202;16.260;2023-10-19T07:13:01;26.20;;;23.67;;
48205;SDS011;33995;48.202;16.260;2023-10-19T07:15:29;26.47;;;23.90;;
48205;SDS011;33995;48.202;16.260;2023-10-19T07:17:57;25.70;;;23.10;;
48205;SDS011;33995;48.202;16.260;2023-10-19T07:20:26;26.20;;;23.57;;
48205;SDS011;33995;48.202;16.260;2023-10-19T07:23:04;26.20;;;23.60;;
48205;SDS011;33995;48.202;16.260;2023-10-19T07:29:20;25.23;;;22.73;;
48205;SDS011;33995;48.202;16.260;2023-10-19T07:31:49;24.93;;;22.23;;
48205;SDS011;33995;48.202;16.260;2023-10-19T07:34:19;26.00;;;23.40;;
48205;SDS011;33995;48.202;16.260;2023-10-19T07:36:54;26.53;;;23.93;;
48205;SDS011;33995;48.202;16.260;2023-10-19T07:39:24;27.37;;;24.57;;
48205;SDS011;33995;48.202;16.260;2023-10-19T07:41:55;27.73;;;24.97;;
48205;SDS011;33995;48.202;16.260;2023-10-19T07:44:23;27.53;;;24.60;;
48205;SDS011;33995;48.202;16.260;2023-10-19T07:46:53;28.47;;;25.70;;
48205;SDS011;33995;48.202;16.260;2023-10-19T07:49:23;27.47;;;24.77;;
48205;SDS011;33995;48.202;16.260;2023-10-19T07:51:53;27.60;;;24.80;;
48205;SDS011;33995;48.202;16.260;2023-10-19T07:54:24;27.47;;;24.87;;
48205;SDS011;33995;48.202;16.260;2023-10-19T07:56:51;28.27;;;25.57;;
48205;SDS011;33995;48.202;16.260;2023-10-19T07:59:18;28.07;;;25.17;;
48205;SDS011;33995;48.202;16.260;2023-10-19T08:01:45;26.03;;;23.53;;
48205;SDS011;33995;48.202;16.260;2023-10-19T08:04:12;26.70;;;24.03;;
48205;SDS011;33995;48.202;16.260;2023-10-19T08:06:39;26.47;;;23.77;;
48205;SDS011;33995;48.202;16.260;2023-10-19T08:09:06;26.20;;;23.70;;
48205;SDS011;33995;48.202;16.260;2023-10-19T08:11:36;25.87;;;23.37;;
48205;SDS011;33995;48.202;16.260;2023-10-19T08:14:03;27.83;;;24.83;;
48205;SDS011;33995;48.202;16.260;2023-10-19T08:16:31;25.20;;;22.80;;
48205;SDS011;33995;48.202;16.260;2023-10-19T08:18:58;26.57;;;23.87;;
48205;SDS011;33995;48.202;16.260;2023-10-19T08:21:26;26.90;;;24.37;;
48205;SDS011;33995;48.202;16.260;2023-10-19T08:23:55;27.47;;;24.73;;
48205;SDS011;33995;48.202;16.260;2023-10-19T08:26:23;27.57;;;24.97;;
48205;SDS011;33995;48.202;16.260;2023-10-19T08:28:50;27.10;;;24.40;;
48205;SDS011;33995;48.202;16.260;2023-10-19T08:31:17;27.27;;;24.47;;
48205;SDS011;33995;48.202;16.260;2023-10-19T08:33:45;26.50;;;24.00;;
48205;SDS011;33995;48.202;16.260;2023-10-19T08:36:17;27.03;;;24.43;;
48205;SDS011;33995;48.202;16.260;2023-10-19T08:38:46;26.97;;;24.23;;
48205;SDS011;33995;48.202;16.260;2023-10-19T08:41:18;27.13;;;24.47;;
48205;SDS011;33995;48.202;16.260;2023-10-19T08:43:45;25.27;;;22.87;;
48205;SDS011;33995;48.202;16.260;2023-10-19T08:46:12;26.63;;;24.03;;
48205;SDS011;33995;48.202;16.260;2023-10-19T08:48:40;27.23;;;24.63;;
48205;SDS011;33995;48.202;16.260;2023-10-19T08:51:09;27.57;;;24.87;;
48205;SDS011;33995;48.202;16.260;2023-10-19T08:53:37;30.00;;;27.10;;
48205;SDS011;33995;48.202;16.260;2023-10-19T08:56:07;28.43;;;25.73;;
48205;SDS011;33995;48.202;16.260;2023-10-19T08:58:34;29.17;;;26.23;;
48205;SDS011;33995;48.202;16.260;2023-10-19T09:01:02;31.50;;;28.20;;
48205;SDS011;33995;48.202;16.260;2023-10-19T09:03:39;29.70;;;26.60;;
48205;SDS011;33995;48.202;16.260;2023-10-19T09:06:07;33.67;;;30.27;;
48205;SDS011;33995;48.202;16.260;2023-10-19T09:08:34;30.73;;;27.53;;
48205;SDS011;33995;48.202;16.260;2023-10-19T09:11:08;29.27;;;26.47;;
48205;SDS011;33995;48.202;16.260;2023-10-19T09:13:50;26.73;;;23.93;;
48205;SDS011;33995;48.202;16.260;2023-10-19T09:16:21;26.67;;;24.10;;
48205;SDS011;33995;48.202;16.260;2023-10-19T09:18:52;28.23;;;25.40;;
48205;SDS011;33995;48.202;16.260;2023-10-19T09:21:20;27.40;;;24.60;;
48205;SDS011;33995;48.202;16.260;2023-10-19T09:23:50;26.07;;;23.53;;
48205;SDS011;33995;48.202;16.260;2023-10-19T09:26:22;26.00;;;23.40;;
48205;SDS011;33995;48.202;16.260;2023-10-19T09:28:55;25.23;;;22.73;;
48205;SDS011;33995;48.202;16.260;2023-10-19T09:31:22;27.27;;;24.47;;
48205;SDS011;33995;48.202;16.260;2023-10-19T09:33:52;26.43;;;23.83;;
48205;SDS011;33995;48.202;16.260;2023-10-19T09:36:24;26.53;;;23.93;;
48205;SDS011;33995;48.202;16.260;2023-10-19T09:38:56;26.30;;;23.80;;
48205;SDS011;33995;48.202;16.260;2023-10-19T09:41:24;25.17;;;22.77;;
48205;SDS011;33995;48.202;16.260;2023-10-19T09:43:57;23.93;;;21.57;;
48205;SDS011;33995;48.202;16.260;2023-10-19T09:46:32;25.70;;;23.00;;
48205;SDS011;33995;48.202;16.260;2023-10-19T09:49:05;26.80;;;24.00;;
48205;SDS011;33995;48.202;16.260;2023-10-19T09:51:33;25.63;;;23.13;;
48205;SDS011;33995;48.202;16.260;2023-10-19T09:54:02;25.87;;;23.43;;
48205;SDS011;33995;48.202;16.260;2023-10-19T09:56:54;26.60;;;24.00;;
48205;SDS011;33995;48.202;16.260;2023-10-19T09:59:35;26.37;;;23.57;;
48205;SDS011;33995;48.202;16.260;2023-10-19T10:02:07;26.93;;;24.27;;
48205;SDS011;33995;48.202;16.260;2023-10-19T10:04:40;27.07;;;24.43;;
48205;SDS011;33995;48.202;16.260;2023-10-19T10:07:09;26.37;;;23.63;;
48205;SDS011;33995;48.202;16.260;2023-10-19T10:09:38;25.70;;;23.10;;
48205;SDS011;33995;48.202;16.260;2023-10-19T10:12:16;25.83;;;23.10;;
48205;SDS011;33995;48.202;16.260;2023-10-19T10:15:00;25.80;;;23.17;;
48205;SDS011;33995;48.202;16.260;2023-10-19T10:17:36;25.00;;;22.50;;
48205;SDS011;33995;48.202;16.260;2023-10-19T10:22:44;24.90;;;22.53;;
48205;SDS011;33995;48.202;16.260;2023-10-19T10:25:33;24.73;;;22.30;;
48205;SDS011;33995;48.202;16.260;2023-10-19T10:28:02;25.17;;;22.60;;
48205;SDS011;33995;48.202;16.260;2023-10-19T10:30:33;24.70;;;22.40;;
48205;SDS011;33995;48.202;16.260;2023-10-19T10:33:00;23.30;;;21.13;;
48205;SDS011;33995;48.202;16.260;2023-10-19T10:38:05;23.17;;;20.97;;
48205;SDS011;33995;48.202;16.260;2023-10-19T10:40:45;23.63;;;21.47;;
48205;SDS011;33995;48.202;16.260;2023-10-19T10:43:14;22.30;;;20.30;;
48205;SDS011;33995;48.202;16.260;2023-10-19T10:45:45;22.07;;;20.00;;
48205;SDS011;33995;48.202;16.260;2023-10-19T10:48:12;22.53;;;20.47;;
48205;SDS011;33995;48.202;16.260;2023-10-19T10:50:43;24.37;;;22.07;;
48205;SDS011;33995;48.202;16.260;2023-10-19T10:53:16;24.63;;;22.23;;
48205;SDS011;33995;48.202;16.260;2023-10-19T10:55:48;24.47;;;22.17;;
48205;SDS011;33995;48.202;16.260;2023-10-19T10:58:15;23.97;;;21.67;;
48205;SDS011;33995;48.202;16.260;2023-10-19T11:00:46;23.20;;;20.90;;
48205;SDS011;33995;48.202;16.260;2023-10-19T11:03:18;23.60;;;21.23;;
48205;SDS011;33995;48.202;16.260;2023-10-19T11:05:45;22.70;;;20.53;;
48205;SDS011;33995;48.202;16.260;2023-10-19T11:08:13;23.23;;;20.93;;
48205;SDS011;33995;48.202;16.260;2023-10-19T11:10:47;22.87;;;20.73;;
48205;SDS011;33995;48.202;16.260;2023-10-19T11:13:15;23.73;;;21.63;;
48205;SDS011;33995;48.202;16.260;2023-10-19T11:15:51;22.70;;;20.50;;
48205;SDS011;33995;48.202;16.260;2023-10-19T11:18:34;22.60;;;20.47;;
48205;SDS011;33995;48.202;16.260;2023-10-19T11:21:16;23.10;;;21.00;;
48205;SDS011;33995;48.202;16.260;2023-10-19T11:23:46;23.93;;;20.87;;
48205;SDS011;33995;48.202;16.260;2023-10-19T11:26:19;22.57;;;20.40;;
48205;SDS011;33995;48.202;16.260;2023-10-19T11:28:56;22.03;;;19.93;;
48205;SDS011;33995;48.202;16.260;2023-10-19T11:31:24;21.43;;;19.10;;
48205;SDS011;33995;48.202;16.260;2023-10-19T11:33:53;20.87;;;18.87;;
48205;SDS011;33995;48.202;16.260;2023-10-19T11:36:25;20.70;;;18.80;;
48205;SDS011;33995;48.202;16.260;2023-10-19T11:38:52;20.90;;;19.00;;
48205;SDS011;33995;48.202;16.260;2023-10-19T11:41:20;22.00;;;19.90;;
48205;SDS011;33995;48.202;16.260;2023-10-19T11:43:48;21.17;;;19.17;;
48205;SDS011;33995;48.202;16.260;2023-10-19T11:46:16;19.87;;;18.07;;
48205;SDS011;33995;48.202;16.260;2023-10-19T11:48:53;20.00;;;17.93;;
48205;SDS011;33995;48.202;16.260;2023-10-19T11:51:20;19.57;;;17.73;;
48205;SDS011;33995;48.202;16.260;2023-10-19T11:53:48;19.27;;;17.47;;
48205;SDS011;33995;48.202;16.260;2023-10-19T11:56:15;18.93;;;17.23;;
48205;SDS011;33995;48.202;16.260;2023-10-19T11:58:43;19.53;;;17.83;;
48205;SDS011;33995;48.202;16.260;2023-10-19T12:01:13;20.70;;;18.80;;
48205;SDS011;33995;48.202;16.260;2023-10-19T12:03:44;19.10;;;17.40;;
48205;SDS011;33995;48.202;16.260;2023-10-19T12:06:18;21.17;;;19.13;;
48205;SDS011;33995;48.202;16.260;2023-10-19T12:08:46;20.47;;;18.57;;
48205;SDS011;33995;48.202;16.260;2023-10-19T12:11:13;20.27;;;18.37;;
48205;SDS011;33995;48.202;16.260;2023-10-19T12:13:45;20.97;;;18.77;;
48205;SDS011;33995;48.202;16.260;2023-10-19T12:16:15;19.53;;;17.80;;
48205;SDS011;33995;48.202;16.260;2023-10-19T12:18:46;20.57;;;18.57;;
48205;SDS011;33995;48.202;16.260;2023-10-19T12:21:15;20.33;;;18.37;;
48205;SDS011;33995;48.202;16.260;2023-10-19T12:23:46;20.60;;;18.67;;
48205;SDS011;33995;48.202;16.260;2023-10-19T12:26:17;20.97;;;18.87;;
48205;SDS011;33995;48.202;16.260;2023-10-19T12:28:46;19.90;;;18.10;;
48205;SDS011;33995;48.202;16.260;2023-10-19T12:31:15;19.07;;;17.27;;
48205;SDS011;33995;48.202;16.260;2023-10-19T12:33:45;19.20;;;17.30;;
48205;SDS011;33995;48.202;16.260;2023-10-19T12:36:12;20.47;;;18.37;;
48205;SDS011;33995;48.202;16.260;2023-10-19T12:38:54;19.43;;;17.63;;
48205;SDS011;33995;48.202;16.260;2023-10-19T12:41:21;20.47;;;18.57;;
48205;SDS011;33995;48.202;16.260;2023-10-19T12:43:50;19.40;;;17.60;;
48205;SDS011;33995;48.202;16.260;2023-10-19T12:46:35;20.47;;;18.27;;
48205;SDS011;33995;48.202;16.260;2023-10-19T12:49:04;19.83;;;17.80;;
48205;SDS011;33995;48.202;16.260;2023-10-19T12:51:34;19.80;;;18.00;;
48205;SDS011;33995;48.202;16.260;2023-10-19T12:54:02;19.57;;;17.67;;
48205;SDS011;33995;48.202;16.260;2023-10-19T12:56:30;19.23;;;17.43;;
48205;SDS011;33995;48.202;16.260;2023-10-19T12:58:59;19.40;;;17.40;;
48205;SDS011;33995;48.202;16.260;2023-10-19T13:01:29;18.73;;;16.83;;
48205;SDS011;33995;48.202;16.260;2023-10-19T13:04:01;19.57;;;17.77;;
48205;SDS011;33995;48.202;16.260;2023-10-19T13:06:44;19.50;;;17.63;;
48205;SDS011;33995;48.202;16.260;2023-10-19T13:09:15;18.37;;;16.77;;
48205;SDS011;33995;48.202;16.260;2023-10-19T13:11:51;19.63;;;17.77;;
48205;SDS011;33995;48.202;16.260;2023-10-19T13:14:18;18.83;;;17.03;;
48205;SDS011;33995;48.202;16.260;2023-10-19T13:16:46;17.97;;;16.27;;
48205;SDS011;33995;48.202;16.260;2023-10-19T13:19:17;18.53;;;16.73;;
48205;SDS011;33995;48.202;16.260;2023-10-19T13:21:47;20.00;;;18.00;;
48205;SDS011;33995;48.202;16.260;2023-10-19T13:24:15;20.00;;;18.20;;
48205;SDS011;33995;48.202;16.260;2023-10-19T13:26:44;20.30;;;18.30;;
48205;SDS011;33995;48.202;16.260;2023-10-19T13:29:13;21.20;;;19.20;;
48205;SDS011;33995;48.202;16.260;2023-10-19T13:31:44;20.93;;;18.90;;
48205;SDS011;33995;48.202;16.260;2023-10-19T13:34:16;22.20;;;19.97;;
48205;SDS011;33995;48.202;16.260;2023-10-19T13:36:43;23.50;;;21.17;;
48205;SDS011;33995;48.202;16.260;2023-10-19T13:39:13;22.27;;;20.17;;
48205;SDS011;33995;48.202;16.260;2023-10-19T13:41:43;22.47;;;20.13;;
48205;SDS011;33995;48.202;16.260;2023-10-19T13:44:11;22.07;;;20.07;;
48205;SDS011;33995;48.202;16.260;2023-10-19T13:46:38;23.33;;;20.93;;
48205;SDS011;33995;48.202;16.260;2023-10-19T13:49:05;23.50;;;21.10;;
48205;SDS011;33995;48.202;16.260;2023-10-19T13:51:32;24.63;;;22.03;;
48205;SDS011;33995;48.202;16.260;2023-10-19T13:54:02;23.77;;;21.67;;
48205;SDS011;33995;48.202;16.260;2023-10-19T13:56:29;25.90;;;23.27;;
48205;SDS011;33995;48.202;16.260;2023-10-19T13:58:59;26.30;;;23.57;;
48205;SDS011;33995;48.202;16.260;2023-10-19T14:01:31;27.07;;;24.33;;
48205;SDS011;33995;48.202;16.260;2023-10-19T14:03:58;25.73;;;23.17;;
48205;SDS011;33995;48.202;16.260;2023-10-19T14:06:25;27.17;;;24.57;;
48205;SDS011;33995;48.202;16.260;2023-10-19T14:08:52;25.83;;;23.33;;
48205;SDS011;33995;48.202;16.260;2023-10-19T14:11:22;26.07;;;23.53;;
48205;SDS011;33995;48.202;16.260;2023-10-19T14:13:49;25.23;;;22.63;;
48205;SDS011;33995;48.202;16.260;2023-10-19T14:16:19;25.47;;;23.07;;
48205;SDS011;33995;48.202;16.260;2023-10-19T14:18:46;25.70;;;23.10;;
48205;SDS011;33995;48.202;16.260;2023-10-19T14:21:14;23.73;;;21.53;;
48205;SDS011;33995;48.202;16.260;2023-10-19T14:23:43;30.10;;;23.47;;
48205;SDS011;33995;48.202;16.260;2023-10-19T14:26:11;25.70;;;23.17;;
48205;SDS011;33995;48.202;16.260;2023-10-19T14:28:41;25.33;;;22.80;;
48205;SDS011;33995;48.202;16.260;2023-10-19T14:31:08;26.13;;;23.40;;
48205;SDS011;33995;48.202;16.260;2023-10-19T14:33:38;24.87;;;22.33;;
48205;SDS011;33995;48.202;16.260;2023-10-19T14:36:05;24.60;;;22.20;;
48205;SDS011;33995;48.202;16.260;2023-10-19T14:38:33;24.27;;;21.67;;
48205;SDS011;33995;48.202;16.260;2023-10-19T14:41:02;24.67;;;21.83;;
48205;SDS011;33995;48.202;16.260;2023-10-19T14:43:32;23.27;;;20.77;;
48205;SDS011;33995;48.202;16.260;2023-10-19T14:45:59;23.90;;;21.67;;
48205;SDS011;33995;48.202;16.260;2023-10-19T14:48:28;23.47;;;20.77;;